createdAt,value
2023-01-07T00:00:58.155Z,0
2023-01-07T00:05:58.271Z,0
2023-01-07T00:10:58.268Z,0
2023-01-07T00:15:58.222Z,0
2023-01-07T00:20:58.715Z,0
2023-01-07T00:25:58.693Z,0
2023-01-07T00:30:58.891Z,0
2023-01-07T00:35:58.257Z,0
2023-01-07T00:40:58.210Z,0
2023-01-07T00:45:58.205Z,0
2023-01-07T00:50:58.487Z,0
2023-01-07T00:55:58.745Z,0
2023-01-07T01:00:58.304Z,0
2023-01-07T01:05:58.293Z,0
2023-01-07T01:10:58.388Z,0
2023-01-07T01:15:58.332Z,0
2023-01-07T01:20:58.275Z,0
2023-01-07T01:25:58.528Z,0
2023-01-07T01:30:58.312Z,0
2023-01-07T01:35:58.297Z,0
2023-01-07T01:40:58.833Z,0
2023-01-07T01:45:58.356Z,0
2023-01-07T01:50:58.474Z,0
2023-01-07T01:55:58.936Z,0
2023-01-07T02:00:58.997Z,0
2023-01-07T02:05:58.375Z,0
2023-01-07T02:10:58.489Z,0
2023-01-07T02:15:58.493Z,0
2023-01-07T02:20:58.401Z,0
2023-01-07T02:25:58.916Z,0
2023-01-07T02:30:58.530Z,0
2023-01-07T02:35:58.409Z,0
2023-01-07T02:40:58.432Z,0
2023-01-07T02:45:58.469Z,0
2023-01-07T02:50:58.573Z,0
2023-01-07T02:55:58.451Z,0
2023-01-07T03:00:58.544Z,0
2023-01-07T03:05:58.471Z,0
2023-01-07T03:10:59.106Z,0
2023-01-07T03:15:59.001Z,0
2023-01-07T03:20:58.627Z,0
2023-01-07T03:25:58.495Z,0
2023-01-07T03:30:58.635Z,0
2023-01-07T03:50:59.479Z,0
2023-01-07T03:55:59.160Z,0
2023-01-07T04:00:58.760Z,0
2023-01-07T04:05:58.563Z,0
2023-01-07T04:10:59.222Z,0
2023-01-07T04:15:59.088Z,0
2023-01-07T04:20:58.749Z,0
2023-01-07T04:25:58.599Z,0
2023-01-07T04:30:59.360Z,0
2023-01-07T04:35:59.126Z,0
2023-01-07T04:40:58.655Z,0
2023-01-07T05:00:59.708Z,0
2023-01-07T05:05:58.674Z,0
2023-01-07T05:10:59.186Z,0
2023-01-07T05:15:58.695Z,0
2023-01-07T05:20:58.828Z,0
2023-01-07T05:25:58.751Z,0
2023-01-07T05:30:58.785Z,0
2023-01-07T05:35:59.242Z,0
2023-01-07T05:40:58.863Z,0
2023-01-07T05:45:58.886Z,0
2023-01-07T05:50:58.905Z,0
2023-01-07T06:10:59.735Z,0
2023-01-07T06:15:59.463Z,0
2023-01-07T06:20:58.809Z,0
2023-01-07T06:25:59.337Z,0
2023-01-07T06:30:58.996Z,0
2023-01-07T06:35:58.861Z,0
2023-01-07T06:40:58.845Z,0
2023-01-07T06:45:59.386Z,0
2023-01-07T06:50:59.139Z,0
2023-01-07T06:55:58.877Z,0
2023-01-07T07:00:58.895Z,0
2023-01-07T07:05:58.882Z,0
2023-01-07T07:10:58.952Z,0
2023-01-07T07:15:59.156Z,0
2023-01-07T07:30:59.932Z,0
2023-01-07T07:40:58.966Z,0
2023-01-07T07:45:58.992Z,0
2023-01-07T07:50:59.087Z,0
2023-01-07T07:55:58.986Z,0
2023-01-07T08:00:59.039Z,0
2023-01-07T08:05:59.053Z,0
2023-01-07T08:10:59.774Z,0
2023-01-07T08:15:59.081Z,0
2023-01-07T08:20:59.048Z,0
2023-01-07T08:25:59.034Z,0
2023-01-07T08:30:59.224Z,0
2023-01-07T08:35:59.060Z,0
2023-01-07T08:40:59.066Z,0
2023-01-07T08:45:59.076Z,0
2023-01-07T08:50:59.726Z,0
2023-01-07T08:55:59.724Z,0
2023-01-07T09:00:59.180Z,0
2023-01-07T09:05:59.098Z,0
2023-01-07T09:10:59.833Z,0
2023-01-07T09:15:59.689Z,0
2023-01-07T09:20:59.633Z,0
2023-01-07T09:25:59.264Z,0
2023-01-07T09:30:59.782Z,0
2023-01-07T09:35:59.678Z,0
2023-01-07T09:40:59.195Z,0
2023-01-07T09:45:59.216Z,0
2023-01-07T09:50:59.805Z,0
2023-01-07T09:56:10.101Z,0
2023-01-07T10:00:59.260Z,0
2023-01-07T10:05:59.218Z,0
2023-01-07T10:10:59.867Z,0
2023-01-07T10:15:59.231Z,0
2023-01-07T10:20:59.236Z,0
2023-01-07T10:25:59.238Z,0
2023-01-07T10:30:59.917Z,0
2023-01-07T10:35:59.768Z,0
2023-01-07T10:40:59.782Z,0
2023-01-07T10:45:59.371Z,0
2023-01-07T10:51:00.098Z,0
2023-01-07T10:55:59.300Z,0
2023-01-07T11:00:59.404Z,0
2023-01-07T11:05:59.333Z,0
2023-01-07T11:10:59.969Z,0
2023-01-07T11:15:59.330Z,0
2023-01-07T11:20:59.370Z,0
2023-01-07T11:25:59.407Z,0
2023-01-07T11:30:59.503Z,0
2023-01-07T11:35:59.890Z,0
2023-01-07T11:56:00.338Z,0
2023-01-07T12:00:59.451Z,0
2023-01-07T12:05:59.953Z,0
2023-01-07T12:10:59.430Z,0
2023-01-07T12:15:59.587Z,0
2023-01-07T12:20:59.960Z,0
2023-01-07T12:26:00.031Z,0
2023-01-07T12:31:04.952Z,0
2023-01-07T12:35:59.471Z,0
2023-01-07T12:40:59.990Z,0
2023-01-07T12:46:00.368Z,0
2023-01-07T12:50:59.628Z,0
2023-01-07T12:55:59.632Z,0
2023-01-07T13:01:00.176Z,0
2023-01-07T13:06:00.167Z,0
2023-01-07T13:10:59.565Z,0
2023-01-07T13:15:59.562Z,0
2023-01-07T13:21:00.080Z,0
2023-01-07T13:25:59.711Z,0
2023-01-07T13:31:00.349Z,0
2023-01-07T13:35:59.585Z,0
2023-01-07T13:56:00.557Z,0
2023-01-07T14:00:59.675Z,0
2023-01-07T14:06:00.148Z,0
2023-01-07T14:10:59.790Z,0
2023-01-07T14:16:00.360Z,0
2023-01-07T14:21:00.174Z,0
2023-01-07T14:25:59.684Z,0
2023-01-07T14:46:00.724Z,0
2023-01-07T14:50:59.726Z,0
2023-01-07T15:06:00.720Z,0
2023-01-07T15:11:00.266Z,0
2023-01-07T15:15:59.834Z,0
2023-01-07T15:20:59.771Z,0
2023-01-07T15:25:59.902Z,0
2023-01-07T15:31:00.336Z,0
2023-01-07T15:46:00.818Z,0
2023-01-07T15:50:59.913Z,0
2023-01-07T15:55:59.835Z,0
2023-01-07T16:21:00.835Z,0
2023-01-07T16:26:00.451Z,0
2023-01-07T16:31:00.466Z,0
2023-01-07T16:35:59.910Z,0
2023-01-07T16:41:00.057Z,0
2023-01-07T16:46:00.434Z,0
2023-01-07T16:51:00.103Z,0
2023-01-07T16:56:00.460Z,0
2023-01-07T17:01:00.722Z,0
2023-01-07T17:06:00.608Z,0
2023-01-07T17:10:59.981Z,0
2023-01-07T17:15:59.992Z,0
2023-01-07T17:21:00.640Z,0
2023-01-07T17:26:00.506Z,0.002
2023-01-07T17:31:00.523Z,0.005
2023-01-07T17:36:00.661Z,0.009
2023-01-07T17:41:00.163Z,0.012
2023-01-07T17:46:00.712Z,0.012
2023-01-07T17:51:00.122Z,0.011
2023-01-07T17:56:00.061Z,0.006
2023-01-07T18:01:00.324Z,0.007
2023-01-07T18:06:00.581Z,0.006
2023-01-07T18:11:00.164Z,0.004
2023-01-07T18:16:00.190Z,0.004
2023-01-07T18:21:00.248Z,0.012
2023-01-07T18:26:00.652Z,0.004
2023-01-07T18:31:00.126Z,0.006
2023-01-07T18:36:00.629Z,0.006
2023-01-07T18:41:00.263Z,0.008
2023-01-07T18:46:00.741Z,0.008
2023-01-07T18:51:00.164Z,0.01
2023-01-07T18:56:00.172Z,0
2023-01-07T19:01:00.418Z,0
2023-01-07T19:06:00.184Z,0
2023-01-07T19:11:00.708Z,0
2023-01-07T19:16:00.907Z,0
2023-01-07T19:21:00.323Z,0
2023-01-07T19:26:00.225Z,0
2023-01-07T19:31:00.262Z,0
2023-01-07T19:36:00.233Z,0.001
2023-01-07T19:41:00.363Z,0.003
2023-01-07T19:46:00.410Z,0
2023-01-07T19:51:00.773Z,0.002
2023-01-07T19:56:00.788Z,0
2023-01-07T20:01:00.571Z,0
2023-01-07T20:06:00.809Z,0
2023-01-07T20:11:00.304Z,0
2023-01-07T20:16:00.303Z,0
2023-01-07T20:21:00.342Z,0
2023-01-07T20:26:00.324Z,0
2023-01-07T20:46:00.891Z,0.003
2023-01-07T20:51:00.363Z,0
2023-01-07T20:56:00.554Z,0
2023-01-07T21:01:00.589Z,0
2023-01-07T21:06:00.406Z,0
2023-01-07T21:11:00.408Z,0
2023-01-07T21:16:00.960Z,0
2023-01-07T21:21:00.546Z,0
2023-01-07T21:26:00.427Z,0
2023-01-07T21:31:00.426Z,0.001
2023-01-07T21:36:00.440Z,0.002
2023-01-07T21:41:00.610Z,0.006
2023-01-07T21:46:00.500Z,0.007
2023-01-07T21:51:00.983Z,0.005
2023-01-07T21:56:00.483Z,0.001
2023-01-07T22:01:00.748Z,0.002
2023-01-07T22:06:01.009Z,0.007
2023-01-07T22:21:01.489Z,0.005
2023-01-07T22:31:00.556Z,0
2023-01-07T22:36:00.556Z,0.005
2023-01-07T22:41:01.192Z,0
2023-01-07T22:46:00.638Z,0.005
2023-01-07T22:51:00.588Z,0
2023-01-07T22:56:00.592Z,0
2023-01-07T23:01:00.642Z,0
2023-01-07T23:06:01.135Z,0
2023-01-07T23:11:00.611Z,0
2023-01-07T23:31:01.632Z,0.006
2023-01-07T23:36:01.178Z,0.003
2023-01-07T23:41:01.246Z,0.005
2023-01-07T23:46:00.699Z,0
2023-01-07T23:51:00.815Z,0.004
2023-01-07T23:56:01.210Z,0.006
